Time;durP1;ratioP1;P1;durP2;ratioP2;P2;SDS_P1;SDS_P2;PMS_P1;PMS_P2;Temp;Humidity;BMP_temperature;BMP_pressure;BME280_temperature;BME280_humidity;BME280_pressure;Samples;Min_cycle;Max_cycle;Signal;HPM_P1;HPM_P2
2024/01/01 00:04:38;;;;;;;75.07;51.28;;;;;;;6.51;100.00;99581.78;4206107;23;20049;-80
2024/01/01 00:07:06;;;;;;;91.15;68.10;;;;;;;6.51;100.00;99584.38;4877728;29;20059;-80
2024/01/01 00:09:33;;;;;;;70.20;49.17;;;;;;;6.52;100.00;99580.03;4873911;29;20268;-78
2024/01/01 00:12:01;;;;;;;60.20;42.95;;;;;;;6.52;100.00;99572.16;4837768;29;20056;-81
2024/01/01 00:14:29;;;;;;;87.35;69.65;;;;;;;6.50;100.00;99574.78;4871075;29;20067;-81
2024/01/01 00:16:57;;;;;;;77.22;57.95;;;;;;;6.50;100.00;99577.41;4885128;29;20060;-79
2024/01/01 00:19:27;;;;;;;;;;;;;;;6.51;100.00;99573.06;4875714;29;20056;-79
2024/01/01 00:21:58;;;;;;;65.63;43.08;;;;;;;6.50;100.00;99577.41;4876518;29;19927;-79
2024/01/01 00:24:25;;;;;;;46.20;30.83;;;;;;;6.49;100.00;99575.66;4875596;29;20060;-79
2024/01/01 00:26:53;;;;;;;46.65;33.97;;;;;;;6.50;100.00;99576.53;4862633;29;20052;-78
2024/01/01 00:29:21;;;;;;;70.20;50.10;;;;;;;6.50;100.00;99566.94;4845825;29;20057;-79
2024/01/01 00:32:02;;;;;;;74.05;51.72;;;;;;;6.48;100.00;99571.28;4851540;29;20060;-79
2024/01/01 00:34:31;;;;;;;51.45;36.58;;;;;;;6.50;100.00;99564.31;4883089;29;20064;-79
2024/01/01 00:37:00;;;;;;;66.97;45.78;;;;;;;6.49;100.00;99562.59;4873640;29;20087;-78
2024/01/01 00:39:28;;;;;;;68.20;51.35;;;;;;;6.50;100.00;99555.59;4876359;29;20052;-78
2024/01/01 00:41:55;;;;;;;82.65;58.88;;;;;;;6.50;100.00;99569.53;4871943;29;20072;-79
2024/01/01 00:44:26;;;;;;;94.57;64.47;;;;;;;6.51;100.00;99560.84;4838900;29;20053;-78
2024/01/01 00:46:54;;;;;;;61.17;43.00;;;;;;;6.51;100.00;99559.97;4877480;29;20072;-79
2024/01/01 00:49:21;;;;;;;72.70;49.67;;;;;;;6.51;100.00;99563.44;4841933;29;20076;-79
2024/01/01 00:51:50;;;;;;;71.43;50.13;;;;;;;6.53;100.00;99560.84;4866063;29;20052;-80
2024/01/01 00:54:18;;;;;;;57.60;41.75;;;;;;;6.53;100.00;99553.84;4895752;29;20059;-79
2024/01/01 00:56:46;;;;;;;56.00;38.83;;;;;;;6.54;100.00;99557.34;4839931;29;20048;-78
2024/01/01 00:59:13;;;;;;;53.35;32.60;;;;;;;6.54;100.00;99555.63;4833323;29;20057;-78
2024/01/01 01:01:41;;;;;;;52.05;28.42;;;;;;;6.54;100.00;99560.84;4878977;29;20052;-79
2024/01/01 01:04:09;;;;;;;39.22;23.73;;;;;;;6.54;100.00;99550.38;4850011;29;20049;-79
2024/01/01 01:06:36;;;;;;;36.90;23.50;;;;;;;6.53;100.00;99553.84;4864851;29;20049;-79
2024/01/01 01:09:08;;;;;;;38.67;22.83;;;;;;;6.54;100.00;99554.72;4858288;29;20060;-79
2024/01/01 01:11:38;;;;;;;38.63;23.55;;;;;;;6.55;100.00;99559.09;4850215;29;20418;-78
2024/01/01 01:14:06;;;;;;;42.30;26.75;;;;;;;6.54;100.00;99557.34;4831230;29;20064;-80
2024/01/01 01:16:35;;;;;;;38.38;22.65;;;;;;;6.55;100.00;99559.94;4857886;29;20064;-78
2024/01/01 01:19:03;;;;;;;40.00;23.02;;;;;;;6.55;100.00;99553.84;4847461;29;20061;-79
2024/01/01 01:21:31;;;;;;;36.85;22.52;;;;;;;6.55;100.00;99557.34;4822775;29;20046;-78
2024/01/01 01:23:58;;;;;;;44.13;22.80;;;;;;;6.57;100.00;99565.19;4857536;29;20060;-78
2024/01/01 01:26:26;;;;;;;41.30;24.00;;;;;;;6.55;100.00;99557.34;4847274;29;20076;-79
2024/01/01 01:28:53;;;;;;;38.60;21.35;;;;;;;6.57;100.00;99563.44;4835864;29;20048;-79
2024/01/01 01:31:22;;;;;;;33.33;21.27;;;;;;;6.56;100.00;99566.94;4820436;29;20080;-79
2024/01/01 01:33:53;;;;;;;37.55;23.05;;;;;;;6.57;100.00;99570.44;4851070;29;20053;-79
2024/01/01 01:36:20;;;;;;;38.40;22.83;;;;;;;6.55;100.00;99562.56;4852741;29;20060;-79
2024/01/01 01:38:49;;;;;;;42.03;23.48;;;;;;;6.55;100.00;99557.34;4851394;29;20064;-79
2024/01/01 01:41:18;;;;;;;38.17;23.10;;;;;;;6.55;100.00;99566.94;4854654;29;20427;-79
2024/01/01 01:43:45;;;;;;;32.47;20.65;;;;;;;6.55;100.00;99559.94;4866668;29;20040;-78
2024/01/01 01:46:14;;;;;;;42.08;26.13;;;;;;;6.54;100.00;99566.09;4817494;29;20657;-79
2024/01/01 01:48:42;;;;;;;60.20;44.35;;;;;;;6.53;100.00;99563.47;4857534;29;20053;-80
2024/01/01 01:51:10;;;;;;;68.60;51.47;;;;;;;6.52;100.00;99564.31;4826577;29;20057;-77
2024/01/01 01:53:39;;;;;;;46.13;25.92;;;;;;;6.52;100.00;99557.38;4852392;29;20755;-80
2024/01/01 01:56:09;;;;;;;38.03;23.42;;;;;;;6.53;100.00;99556.47;4856212;29;20438;-81
2024/01/01 01:58:36;;;;;;;37.45;23.63;;;;;;;6.54;100.00;99557.34;4847797;29;20045;-79
2024/01/01 02:01:06;;;;;;;42.70;24.67;;;;;;;6.54;100.00;99557.34;4809156;29;20056;-80
2024/01/01 02:03:34;;;;;;;40.17;22.33;;;;;;;6.56;100.00;99551.25;4893048;23;20065;-79
2024/01/01 02:06:01;;;;;;;38.35;23.38;;;;;;;6.56;100.00;99550.34;4874763;29;20328;-78
2024/01/01 02:08:29;;;;;;;37.08;22.45;;;;;;;6.58;100.00;99562.59;4860659;29;20450;-79
2024/01/01 02:10:57;;;;;;;33.03;22.05;;;;;;;6.59;100.00;99560.81;4904590;29;20060;-78
2024/01/01 02:13:28;;;;;;;30.92;20.63;;;;;;;6.59;100.00;99564.31;4863005;29;20060;-79
2024/01/01 02:15:56;;;;;;;36.40;21.45;;;;;;;6.62;100.00;99558.22;4856244;29;20080;-79
2024/01/01 02:18:25;;;;;;;30.13;20.38;;;;;;;6.63;100.00;99560.84;4837178;29;20116;-78
2024/01/01 02:20:55;;;;;;;39.13;22.35;;;;;;;6.65;100.00;99558.19;4859085;29;20052;-80
2024/01/01 02:23:25;;;;;;;36.92;20.52;;;;;;;6.66;100.00;99557.34;4864542;29;20045;-78
2024/01/01 02:25:53;;;;;;;34.97;20.73;;;;;;;6.67;100.00;99560.81;4874427;29;20044;-79
2024/01/01 02:28:21;;;;;;;39.35;20.90;;;;;;;6.68;100.00;99566.06;4862221;29;20048;-78
2024/01/01 02:30:48;;;;;;;33.80;20.27;;;;;;;6.70;100.00;99566.06;4881981;29;20390;-78
2024/01/01 02:33:15;;;;;;;29.70;19.67;;;;;;;6.70;100.00;99566.91;4823031;29;20852;-78
2024/01/01 02:35:43;;;;;;;34.58;18.75;;;;;;;6.72;100.00;99564.31;4875944;29;20060;-81
2024/01/01 02:38:11;;;;;;;34.63;19.83;;;;;;;6.74;100.00;99568.66;4863282;29;20052;-78
2024/01/01 02:40:39;;;;;;;31.80;19.58;;;;;;;6.74;100.00;99550.31;4864975;29;20049;-78
2024/01/01 02:43:06;;;;;;;29.83;19.83;;;;;;;6.75;100.00;99551.22;4865223;29;20549;-78
2024/01/01 02:45:34;;;;;;;34.85;21.48;;;;;;;6.77;100.00;99559.94;4893094;29;20049;-78
2024/01/01 02:48:01;;;;;;;30.58;20.88;;;;;;;6.75;100.00;99559.06;4829558;29;20785;-79
2024/01/01 02:50:29;;;;;;;34.40;20.75;;;;;;;6.75;100.00;99559.94;4885843;29;20064;-78
2024/01/01 02:52:57;;;;;;;47.85;32.38;;;;;;;6.75;100.00;99564.31;4868767;29;20963;-78
2024/01/01 02:55:25;;;;;;;34.85;21.63;;;;;;;6.75;100.00;99553.84;4873090;29;20068;-79
2024/01/01 02:57:52;;;;;;;36.45;25.05;;;;;;;6.74;100.00;99557.31;4878287;29;20048;-79
2024/01/01 03:00:20;;;;;;;29.63;20.33;;;;;;;6.74;100.00;99563.41;4878744;29;20056;-79
2024/01/01 03:02:49;;;;;;;33.03;21.40;;;;;;;6.75;100.00;99564.31;4874950;29;20061;-79
2024/01/01 03:05:16;;;;;;;29.33;18.73;;;;;;;6.74;100.00;99570.41;4847265;29;20064;-79
2024/01/01 03:07:44;;;;;;;33.95;18.83;;;;;;;6.75;100.00;99575.66;4878046;29;20052;-78
2024/01/01 03:10:11;;;;;;;30.30;19.38;;;;;;;6.75;100.00;99565.19;4870744;29;20494;-79
2024/01/01 03:12:38;;;;;;;31.17;20.80;;;;;;;6.75;100.00;99564.31;4868754;29;20060;-78
2024/01/01 03:15:06;;;;;;;36.72;21.15;;;;;;;6.75;100.00;99565.19;4891870;29;20426;-79
2024/01/01 03:17:34;;;;;;;32.20;18.50;;;;;;;6.75;100.00;99577.41;4857805;29;20051;-79
2024/01/01 03:20:04;;;;;;;32.05;19.42;;;;;;;6.74;100.00;99583.50;4820425;29;20060;-79
2024/01/01 03:22:32;;;;;;;31.92;19.08;;;;;;;6.71;100.00;99589.63;4887143;29;20050;-78
2024/01/01 03:24:59;;;;;;;20.65;14.88;;;;;;;6.67;100.00;99576.53;4877654;29;20057;-79
2024/01/01 03:27:27;;;;;;;27.00;16.98;;;;;;;6.60;100.00;99573.06;4868267;29;20502;-78
2024/01/01 03:29:54;;;;;;;34.63;23.35;;;;;;;6.55;100.00;99575.66;4892754;29;20486;-79
2024/01/01 03:32:22;;;;;;;34.92;21.13;;;;;;;6.52;100.00;99582.63;4877945;29;20047;-78
2024/01/01 03:34:49;;;;;;;26.85;15.52;;;;;;;6.49;100.00;99585.28;4853756;29;20425;-79
2024/01/01 03:37:17;;;;;;;26.13;16.10;;;;;;;6.45;100.00;99573.94;4853186;29;20056;-78
2024/01/01 03:39:44;;;;;;;21.88;15.70;;;;;;;6.43;100.00;99578.31;4867887;29;20060;-78
2024/01/01 03:42:11;;;;;;;26.95;14.90;;;;;;;6.42;100.00;99566.06;4881145;29;20045;-78
2024/01/01 03:44:39;;;;;;;25.98;13.02;;;;;;;6.38;100.00;99575.66;4881995;29;20056;-78
2024/01/01 03:47:06;;;;;;;17.63;11.48;;;;;;;6.36;100.00;99573.94;4867666;29;20928;-78
2024/01/01 03:49:34;;;;;;;16.55;9.93;;;;;;;6.31;100.00;99578.28;4894205;29;20060;-78
2024/01/01 03:52:01;;;;;;;16.17;9.68;;;;;;;6.28;100.00;99584.41;4842267;29;20492;-78
2024/01/01 03:54:29;;;;;;;17.73;10.07;;;;;;;6.24;100.00;99578.28;4882682;29;20052;-78
2024/01/01 03:56:56;;;;;;;21.17;9.90;;;;;;;6.21;100.00;99578.28;4858031;29;20087;-78
2024/01/01 03:59:24;;;;;;;16.88;10.93;;;;;;;6.20;100.00;99584.41;4852712;29;20041;-78
2024/01/01 04:01:51;;;;;;;16.40;10.52;;;;;;;6.18;100.00;99580.91;4890458;29;20048;-80
2024/01/01 04:04:19;;;;;;;19.83;11.27;;;;;;;6.18;100.00;99586.16;4867186;29;20056;-77
2024/01/01 04:06:46;;;;;;;18.08;10.65;;;;;;;6.20;100.00;99592.25;4855184;29;20056;-78
2024/01/01 04:09:13;;;;;;;18.52;10.00;;;;;;;6.19;100.00;99594.84;4850536;29;20049;-77
2024/01/01 04:11:41;;;;;;;25.00;11.25;;;;;;;6.17;100.00;99587.00;4872858;29;20501;-78
2024/01/01 04:14:08;;;;;;;20.40;9.40;;;;;;;6.17;100.00;99580.91;4860694;29;20056;-78
2024/01/01 04:16:36;;;;;;;19.48;9.50;;;;;;;6.16;100.00;99585.28;4894031;29;20044;-78
2024/01/01 04:19:03;;;;;;;20.77;8.65;;;;;;;6.15;100.00;99583.50;4882512;29;20060;-78
2024/01/01 04:21:31;;;;;;;13.13;7.93;;;;;;;6.13;100.00;99587.00;4882076;29;20053;-78
2024/01/01 04:23:58;;;;;;;17.85;8.35;;;;;;;6.11;100.00;99578.28;4845465;29;20817;-78
2024/01/01 04:26:25;;;;;;;15.52;7.22;;;;;;;6.10;100.00;99571.31;4861537;29;20048;-78
2024/01/01 04:28:53;;;;;;;20.63;7.07;;;;;;;6.07;100.00;99574.81;4865680;29;20049;-78
2024/01/01 04:31:20;;;;;;;11.63;6.70;;;;;;;6.05;100.00;99560.84;4867046;29;20060;-78
2024/01/01 04:33:47;;;;;;;14.80;6.85;;;;;;;6.02;100.00;99566.06;4875502;29;20048;-78
2024/01/01 04:36:15;;;;;;;11.77;6.10;;;;;;;5.99;100.00;99576.50;4866721;29;20044;-78
2024/01/01 04:38:43;;;;;;;18.73;6.45;;;;;;;5.97;100.00;99578.25;4858562;29;20057;-79
2024/01/01 04:41:10;;;;;;;13.93;5.97;;;;;;;5.97;100.00;99594.84;4858799;29;20052;-78
2024/01/01 04:43:41;;;;;;;12.13;5.72;;;;;;;5.96;100.00;99581.75;4866926;29;20052;-79
2024/01/01 04:46:08;;;;;;;;;;;;;;;5.95;100.00;99577.34;4880246;29;20046;-79
2024/01/01 04:48:35;;;;;;;9.32;5.07;;;;;;;5.94;100.00;99594.78;4872434;29;19938;-79
2024/01/01 04:51:04;;;;;;;10.07;5.55;;;;;;;5.94;100.00;99586.06;4861634;29;20067;-78
2024/01/01 04:53:31;;;;;;;9.90;4.95;;;;;;;5.93;100.00;99586.94;4893158;29;20049;-78
2024/01/01 04:55:58;;;;;;;12.52;4.68;;;;;;;5.92;100.00;99578.22;4858841;29;20063;-78
2024/01/01 04:58:26;;;;;;;13.48;5.30;;;;;;;5.93;100.00;99587.78;4866799;29;20056;-80
2024/01/01 05:00:53;;;;;;;13.52;5.47;;;;;;;5.92;100.00;99587.81;4852767;29;20045;-78
2024/01/01 05:03:21;;;;;;;10.82;4.28;;;;;;;5.91;100.00;99589.53;4860478;29;20514;-78
2024/01/01 05:05:48;;;;;;;7.45;3.75;;;;;;;5.92;100.00;99598.28;4868281;29;20049;-78
2024/01/01 05:08:15;;;;;;;11.23;4.20;;;;;;;5.91;100.00;99592.16;4888344;29;20060;-78
2024/01/01 05:10:43;;;;;;;11.27;4.07;;;;;;;5.90;100.00;99593.03;4843472;29;20049;-79
2024/01/01 05:13:11;;;;;;;10.73;4.20;;;;;;;5.90;100.00;99597.38;4875286;29;20063;-79
2024/01/01 05:15:40;;;;;;;11.32;3.80;;;;;;;5.90;100.00;99589.53;4891693;29;20212;-78
2024/01/01 05:18:07;;;;;;;8.13;3.72;;;;;;;5.91;100.00;99596.53;4866995;29;20049;-79
2024/01/01 05:20:35;;;;;;;10.85;4.05;;;;;;;5.91;100.00;99599.13;4891806;29;20071;-78
2024/01/01 05:23:03;;;;;;;9.45;4.00;;;;;;;5.90;100.00;99593.03;4859708;29;20316;-78
2024/01/01 05:25:30;;;;;;;11.45;3.78;;;;;;;5.90;100.00;99590.44;4876409;29;20052;-79
2024/01/01 05:27:57;;;;;;;7.07;3.67;;;;;;;5.90;100.00;99597.38;4840861;29;20064;-79
2024/01/01 05:30:29;;;;;;;11.32;4.15;;;;;;;5.90;100.00;99592.16;4877042;29;20032;-79
2024/01/01 05:32:56;;;;;;;7.28;3.65;;;;;;;5.90;100.00;99598.28;4865041;29;20064;-79
2024/01/01 05:35:24;;;;;;;9.60;4.05;;;;;;;5.91;100.00;99604.38;4876361;29;20056;-79
2024/01/01 05:37:51;;;;;;;11.30;4.10;;;;;;;5.90;100.00;99606.13;4879758;29;20057;-78
2024/01/01 05:40:19;;;;;;;9.48;3.35;;;;;;;5.90;100.00;99600.00;4872243;29;20060;-78
2024/01/01 05:42:46;;;;;;;13.23;4.07;;;;;;;5.90;100.00;99606.13;4853794;29;20067;-79
2024/01/01 05:45:13;;;;;;;10.80;3.65;;;;;;;5.90;100.00;99603.50;4865683;29;20057;-78
2024/01/01 05:47:41;;;;;;;13.50;3.85;;;;;;;5.91;100.00;99601.75;4872713;29;20056;-78
2024/01/01 05:50:09;;;;;;;16.05;4.25;;;;;;;5.90;100.00;99600.88;4886813;29;20704;-79
2024/01/01 05:52:36;;;;;;;10.13;3.58;;;;;;;5.90;100.00;99607.84;4872532;29;20056;-79
2024/01/01 05:55:04;;;;;;;9.93;3.80;;;;;;;5.89;100.00;99601.75;4884296;29;20048;-79
2024/01/01 05:57:32;;;;;;;9.55;3.25;;;;;;;5.89;100.00;99603.50;4859419;29;20570;-78
2024/01/01 05:59:59;;;;;;;10.85;3.90;;;;;;;5.88;100.00;99601.72;4863208;29;20279;-79
2024/01/01 06:02:28;;;;;;;7.10;2.90;;;;;;;5.89;100.00;99612.19;4892135;29;20056;-79
2024/01/01 06:04:55;;;;;;;12.40;3.17;;;;;;;5.88;100.00;99607.84;4863974;29;20056;-77
2024/01/01 06:07:22;;;;;;;8.27;3.33;;;;;;;5.88;100.00;99605.25;4892438;29;20056;-79
2024/01/01 06:09:50;;;;;;;8.80;3.38;;;;;;;5.89;100.00;99608.72;4880654;29;20059;-78
2024/01/01 06:12:17;;;;;;;9.75;3.22;;;;;;;5.88;100.00;99605.25;4874003;29;20052;-78
2024/01/01 06:14:46;;;;;;;9.63;3.25;;;;;;;5.88;100.00;99610.47;4843201;29;20048;-78
2024/01/01 06:17:13;;;;;;;8.00;2.95;;;;;;;5.88;100.00;99609.56;4864485;29;20055;-78
2024/01/01 06:19:44;;;;;;;11.45;3.28;;;;;;;5.89;100.00;99612.19;4853311;29;20044;-78
2024/01/01 06:22:12;;;;;;;13.20;3.25;;;;;;;5.89;100.00;99616.56;4875104;29;20052;-79
2024/01/01 06:24:40;;;;;;;11.57;3.00;;;;;;;5.90;100.00;99624.41;4866690;29;20048;-79
2024/01/01 06:27:07;;;;;;;11.32;2.97;;;;;;;5.90;100.00;99616.56;4873832;29;20115;-79
2024/01/01 06:29:35;;;;;;;13.93;3.92;;;;;;;5.90;100.00;99611.34;4862894;29;20493;-78
2024/01/01 06:32:02;;;;;;;7.78;3.17;;;;;;;5.91;100.00;99618.31;4866164;29;20090;-79
2024/01/01 06:34:29;;;;;;;11.20;3.13;;;;;;;5.92;100.00;99629.66;4891537;29;20399;-78
2024/01/01 06:36:57;;;;;;;8.38;3.10;;;;;;;5.93;100.00;99623.53;4862456;29;20535;-78
2024/01/01 06:39:24;;;;;;;9.77;3.08;;;;;;;5.93;100.00;99624.41;4860340;29;20794;-77
2024/01/01 06:41:51;;;;;;;7.63;2.88;;;;;;;5.93;100.00;99634.00;4895248;29;20422;-79
2024/01/01 06:44:20;;;;;;;7.05;3.42;;;;;;;5.94;100.00;99630.53;4874702;29;20052;-79
2024/01/01 06:46:47;;;;;;;9.38;3.00;;;;;;;5.94;100.00;99634.00;4831844;29;20056;-79
2024/01/01 06:49:15;;;;;;;11.45;2.80;;;;;;;5.95;100.00;99632.25;4870552;29;20049;-77
2024/01/01 06:51:48;;;;;;;8.93;3.45;;;;;;;5.96;100.00;99631.44;4878544;29;20522;-79
2024/01/01 06:54:17;;;;;;;8.15;3.20;;;;;;;5.95;100.00;99630.53;4861548;29;20056;-79
2024/01/01 06:56:44;;;;;;;6.63;2.50;;;;;;;5.96;100.00;99628.81;4871783;29;20900;-78
2024/01/01 06:59:13;;;;;;;8.52;3.13;;;;;;;5.97;100.00;99636.69;4888323;29;20075;-78
2024/01/01 07:01:42;;;;;;;8.60;2.63;;;;;;;5.97;100.00;99646.25;4839606;29;20044;-79
2024/01/01 07:04:11;;;;;;;8.45;5.22;;;;;;;5.96;100.00;99639.28;4879688;29;20063;-78
2024/01/01 07:06:38;;;;;;;8.70;3.47;;;;;;;5.96;100.00;99652.34;4864763;29;20044;-78
2024/01/01 07:09:08;;;;;;;9.85;2.78;;;;;;;5.93;100.00;99653.16;4872628;29;20056;-78
2024/01/01 07:11:35;;;;;;;7.78;2.42;;;;;;;5.94;100.00;99660.16;4875374;29;20052;-80
2024/01/01 07:14:03;;;;;;;8.68;2.80;;;;;;;5.96;100.00;99670.66;4864395;29;20067;-78
2024/01/01 07:16:31;;;;;;;7.78;2.78;;;;;;;5.97;100.00;99667.16;4871790;29;20111;-79
2024/01/01 07:18:58;;;;;;;10.88;3.55;;;;;;;5.99;100.00;99662.81;4814662;29;20060;-79
2024/01/01 07:21:29;;;;;;;14.73;3.72;;;;;;;6.01;100.00;99676.75;4868081;29;20056;-78
2024/01/01 07:23:58;;;;;;;10.27;3.53;;;;;;;6.03;100.00;99664.56;4871167;29;20498;-78
2024/01/01 07:26:25;;;;;;;12.70;3.55;;;;;;;6.03;100.00;99665.44;4865700;29;20514;-79
2024/01/01 07:28:53;;;;;;;11.55;3.00;;;;;;;6.05;100.00;99670.69;4887481;29;20056;-77
2024/01/01 07:31:21;;;;;;;13.15;4.00;;;;;;;6.05;100.00;99676.78;4873098;29;20056;-77
2024/01/01 07:33:49;;;;;;;15.45;3.83;;;;;;;6.06;100.00;99675.03;4854555;29;20095;-79
2024/01/01 07:36:17;;;;;;;9.98;3.00;;;;;;;6.07;100.00;99679.41;4868986;29;20506;-78
2024/01/01 07:38:47;;;;;;;14.77;3.83;;;;;;;6.07;100.00;99684.66;4881772;29;20033;-79
2024/01/01 07:41:14;;;;;;;9.45;3.10;;;;;;;6.07;100.00;99700.34;4869853;29;20040;-78
2024/01/01 07:43:42;;;;;;;7.20;2.30;;;;;;;6.07;100.00;99713.41;4861969;29;20413;-78
2024/01/01 07:46:10;;;;;;;13.88;2.65;;;;;;;6.07;100.00;99716.03;4849480;29;20053;-78
2024/01/01 07:48:37;;;;;;;13.40;3.17;;;;;;;6.06;100.00;99722.13;4820091;29;20052;-78
2024/01/01 07:51:05;;;;;;;13.88;3.63;;;;;;;6.06;100.00;99714.25;4881273;29;20059;-79
2024/01/01 07:53:32;;;;;;;10.15;3.28;;;;;;;6.07;100.00;99726.50;4887170;29;20041;-77
2024/01/01 07:56:01;;;;;;;7.90;2.88;;;;;;;6.06;100.00;99740.41;4874229;29;20037;-78
2024/01/01 07:58:29;;;;;;;11.85;3.17;;;;;;;6.05;100.00;99739.56;4883867;29;20410;-77
2024/01/01 08:00:56;;;;;;;7.93;2.45;;;;;;;6.04;100.00;99744.78;4873799;29;20417;-78
2024/01/01 08:03:25;;;;;;;9.02;2.83;;;;;;;6.01;100.00;99753.50;4888936;29;20090;-78
2024/01/01 08:05:53;;;;;;;4.47;1.98;;;;;;;5.97;100.00;99743.91;4858399;29;20053;-80
2024/01/01 08:08:21;;;;;;;2.80;1.65;;;;;;;5.93;100.00;99749.91;4863970;29;20399;-79
2024/01/01 08:10:49;;;;;;;9.32;1.88;;;;;;;5.86;100.00;99749.03;4875773;29;20060;-79
2024/01/01 08:13:16;;;;;;;3.47;1.40;;;;;;;5.82;100.00;99751.59;4868956;29;20528;-80
2024/01/01 08:15:44;;;;;;;5.88;1.77;;;;;;;5.77;100.00;99759.44;4876830;29;20053;-79
2024/01/01 08:18:11;;;;;;;5.05;1.75;;;;;;;5.74;100.00;99769.88;4893341;29;20386;-79
2024/01/01 08:20:39;;;;;;;4.78;1.45;;;;;;;5.70;100.00;99764.63;4831603;29;20073;-80
2024/01/01 08:23:07;;;;;;;4.35;1.83;;;;;;;5.66;100.00;99771.56;4881775;29;20056;-79
2024/01/01 08:25:34;;;;;;;2.13;0.77;;;;;;;5.62;100.00;99767.19;4867673;29;20064;-79
2024/01/01 08:28:02;;;;;;;2.90;1.10;;;;;;;5.59;100.00;99772.41;4865918;29;20065;-78
2024/01/01 08:30:30;;;;;;;1.27;0.98;;;;;;;5.54;100.00;99780.22;4873787;29;20049;-79
2024/01/01 08:32:58;;;;;;;5.65;0.88;;;;;;;5.51;100.00;99780.19;4870424;29;20082;-79
2024/01/01 08:35:26;;;;;;;7.13;1.50;;;;;;;5.50;100.00;99777.56;4846764;29;20060;-79
2024/01/01 08:37:54;;;;;;;1.58;0.95;;;;;;;5.49;100.00;99773.22;4865939;29;20064;-79
2024/01/01 08:40:21;;;;;;;3.75;1.13;;;;;;;5.47;100.00;99786.25;4868464;29;20071;-79
2024/01/01 08:42:50;;;;;;;4.78;1.30;;;;;;;5.49;100.00;99795.00;4885373;29;20044;-78
2024/01/01 08:45:19;;;;;;;3.72;1.00;;;;;;;5.50;100.00;99793.25;4858687;29;20060;-79
2024/01/01 08:47:47;;;;;;;4.35;0.90;;;;;;;5.50;100.00;99788.00;4891096;29;20057;-79
2024/01/01 08:50:14;;;;;;;2.97;1.02;;;;;;;5.50;100.00;99793.25;4891563;29;20068;-79
2024/01/01 08:52:45;;;;;;;5.15;1.58;;;;;;;5.50;100.00;99799.38;4833190;29;20048;-78
2024/01/01 08:55:12;;;;;;;2.63;1.30;;;;;;;5.53;100.00;99795.88;4878167;29;20052;-79
2024/01/01 08:57:41;;;;;;;5.47;1.83;;;;;;;5.54;100.00;99802.84;4890346;29;20052;-79
2024/01/01 09:00:09;;;;;;;2.15;1.13;;;;;;;5.56;100.00;99801.16;4881641;29;20060;-78
2024/01/01 09:02:37;;;;;;;2.33;1.10;;;;;;;5.58;100.00;99789.81;4876310;29;20048;-79
2024/01/01 09:05:04;;;;;;;3.33;1.30;;;;;;;5.60;100.00;99801.16;4875014;29;20056;-79
2024/01/01 09:07:35;;;;;;;4.57;2.00;;;;;;;5.61;100.00;99807.25;4862115;29;20045;-79
2024/01/01 09:10:04;;;;;;;4.07;1.67;;;;;;;5.64;100.00;99807.28;4872813;29;20056;-79
2024/01/01 09:12:31;;;;;;;3.97;1.70;;;;;;;5.66;100.00;99813.41;4874665;29;20418;-78
2024/01/01 09:14:59;;;;;;;8.57;2.45;;;;;;;5.68;100.00;99806.44;4865904;29;20060;-79
2024/01/01 09:17:26;;;;;;;4.97;1.60;;;;;;;5.71;100.00;99811.69;4868358;29;20052;-79
2024/01/01 09:19:54;;;;;;;4.95;1.88;;;;;;;5.74;100.00;99810.81;4874672;29;20059;-79
2024/01/01 09:22:21;;;;;;;4.47;1.85;;;;;;;5.76;100.00;99833.50;4876574;29;20041;-80
2024/01/01 09:24:49;;;;;;;5.32;1.60;;;;;;;5.76;100.00;99836.09;4832694;29;20045;-80
2024/01/01 09:27:16;;;;;;;4.72;1.60;;;;;;;5.77;100.00;99837.88;4880508;29;20486;-79
2024/01/01 09:29:43;;;;;;;2.80;1.10;;;;;;;5.74;100.00;99845.69;4882983;29;20044;-80
2024/01/01 09:32:11;;;;;;;5.28;1.40;;;;;;;5.71;100.00;99852.63;4883336;29;20048;-79
2024/01/01 09:34:39;;;;;;;5.97;1.45;;;;;;;5.69;100.00;99842.19;4872638;29;20063;-80
2024/01/01 09:37:07;;;;;;;4.47;1.35;;;;;;;5.68;100.00;99863.06;4873269;29;20060;-80
2024/01/01 09:39:35;;;;;;;3.70;1.00;;;;;;;5.66;100.00;99858.69;4829285;29;20048;-80
2024/01/01 09:42:04;;;;;;;3.55;1.15;;;;;;;5.63;100.00;99863.91;4865488;29;20665;-80
2024/01/01 09:44:32;;;;;;;4.25;1.10;;;;;;;5.65;100.00;99858.69;4882302;29;20048;-79
2024/01/01 09:47:00;;;;;;;8.95;1.60;;;;;;;5.63;100.00;99876.09;4874114;29;20592;-81
2024/01/01 09:49:28;;;;;;;9.40;1.85;;;;;;;5.63;100.00;99877.00;4884151;29;20056;-79
2024/01/01 09:51:58;;;;;;;6.22;1.63;;;;;;;5.61;100.00;99872.59;4871076;29;20053;-79
2024/01/01 09:54:25;;;;;;;5.95;1.77;;;;;;;5.62;100.00;99876.97;4854269;29;20044;-80
2024/01/01 09:56:53;;;;;;;3.40;1.27;;;;;;;5.60;100.00;99881.31;4850866;29;20056;-79
2024/01/01 09:59:39;;;;;;;5.68;1.23;;;;;;;5.59;100.00;99874.31;4867054;29;20060;-79
2024/01/01 10:02:09;;;;;;;2.03;1.23;;;;;;;5.61;100.00;99883.03;4874549;29;20055;-78
2024/01/01 10:04:36;;;;;;;3.83;1.33;;;;;;;5.60;100.00;99881.31;4871609;29;20056;-79
2024/01/01 10:07:04;;;;;;;4.65;1.50;;;;;;;5.61;100.00;99883.03;4890219;29;20129;-79
2024/01/01 10:09:32;;;;;;;2.88;1.50;;;;;;;5.60;100.00;99891.78;4859974;29;20063;-78
2024/01/01 10:12:09;;;;;;;3.55;1.13;;;;;;;5.59;100.00;99885.66;4854959;29;20048;-80
2024/01/01 10:14:45;;;;;;;4.65;1.27;;;;;;;5.59;100.00;99887.38;4866673;29;20052;-80
2024/01/01 10:17:19;;;;;;;1.95;1.00;;;;;;;5.59;100.00;99896.09;4868268;29;20049;-79
2024/01/01 10:19:56;;;;;;;2.42;0.90;;;;;;;5.61;100.00;99903.97;4874767;29;20048;-80
2024/01/01 10:22:29;;;;;;;4.82;1.00;;;;;;;5.63;100.00;99908.34;4873813;29;20067;-80
2024/01/01 10:25:16;;;;;;;3.10;1.10;;;;;;;5.69;100.00;99919.69;4848892;29;20056;-80
2024/01/01 10:27:45;;;;;;;5.07;1.30;;;;;;;5.74;100.00;99918.88;4856285;29;20047;-79
2024/01/01 10:30:12;;;;;;;3.45;1.10;;;;;;;5.78;100.00;99910.19;4874571;29;20056;-79
2024/01/01 10:32:41;;;;;;;6.53;1.60;;;;;;;5.81;100.00;99914.59;4857543;29;20517;-80
2024/01/01 10:35:09;;;;;;;4.68;1.48;;;;;;;5.80;100.00;99923.28;4884063;29;20060;-79
2024/01/01 10:37:39;;;;;;;5.18;1.27;;;;;;;5.79;100.00;99911.94;4887358;29;20060;-79
2024/01/01 10:40:09;;;;;;;5.45;1.60;;;;;;;5.79;100.00;99925.03;4863339;29;20079;-78
2024/01/01 10:42:37;;;;;;;12.87;1.47;;;;;;;5.81;100.00;99912.84;4851263;29;20059;-80
2024/01/01 10:45:05;;;;;;;3.97;1.38;;;;;;;5.85;100.00;99919.84;4882511;29;20297;-78
2024/01/01 10:47:33;;;;;;;3.63;1.45;;;;;;;5.88;100.00;99919.00;4885073;29;20048;-79
2024/01/01 10:50:21;;;;;;;4.70;1.10;;;;;;;5.89;100.00;99923.34;4876724;29;20055;-80
2024/01/01 10:53:26;;;;;;;6.43;1.75;;;;;;;5.90;100.00;99932.06;4869489;29;20414;-78
2024/01/01 10:56:42;;;;;;;4.82;1.55;;;;;;;5.95;100.00;99936.50;4859554;29;20414;-80
2024/01/01 10:59:09;;;;;;;6.65;1.45;;;;;;;6.02;100.00;99933.06;4858286;29;20048;-79
2024/01/01 11:01:38;;;;;;;9.75;1.70;;;;;;;6.08;100.00;99942.69;4863713;29;20103;-79
2024/01/01 11:04:06;;;;;;;6.75;1.90;;;;;;;6.14;100.00;99932.25;4879254;29;20052;-81
2024/01/01 11:06:39;;;;;;;11.43;1.77;;;;;;;6.21;100.00;99943.66;4888309;29;20437;-80
2024/01/01 11:09:19;;;;;;;7.63;1.80;;;;;;;6.29;100.00;99946.31;4884144;29;20063;-81
2024/01/01 11:11:51;;;;;;;17.87;5.37;;;;;;;6.34;100.00;99947.22;4865968;29;20070;-80
2024/01/01 11:14:29;;;;;;;8.02;2.13;;;;;;;6.39;100.00;99946.41;4879942;29;20524;-81
2024/01/01 11:17:00;;;;;;;10.63;1.95;;;;;;;6.47;100.00;99941.19;4903083;29;20060;-81
2024/01/01 11:19:44;;;;;;;14.68;2.30;;;;;;;6.54;100.00;99942.09;4904622;29;20051;-78
2024/01/01 11:22:23;;;;;;;12.70;2.58;;;;;;;6.58;100.00;99944.75;4906181;29;20390;-78
2024/01/01 11:24:51;;;;;;;13.13;2.38;;;;;;;6.61;100.00;99944.75;4863266;29;20057;-79
2024/01/01 11:27:36;;;;;;;7.72;2.33;;;;;;;6.66;100.00;99955.25;4860980;29;20059;-79
2024/01/01 11:30:05;;;;;;;12.18;2.22;;;;;;;6.69;100.00;99950.03;4865415;29;20064;-80
2024/01/01 11:32:36;;;;;;;12.45;2.70;;;;;;;6.71;100.00;99961.41;4854895;29;20053;-78
2024/01/01 11:35:12;;;;;;;19.25;3.00;;;;;;;6.75;100.00;99980.63;4893600;29;20044;-81
2024/01/01 11:37:42;;;;;;;20.05;3.58;;;;;;;6.77;100.00;99974.50;4899365;29;20059;-79